createdAt,value
2023-02-11T00:01:52.820Z,77.54
2023-02-11T00:04:19.666Z,77.51
2023-02-11T00:06:46.456Z,77.69
2023-02-11T00:09:13.290Z,77.51
2023-02-11T00:11:40.164Z,77.46
2023-02-11T00:14:08.426Z,77.67
2023-02-11T00:16:35.390Z,77.40
2023-02-11T00:19:03.906Z,77.70
2023-02-11T00:21:30.712Z,77.54
2023-02-11T00:23:59.766Z,77.58
2023-02-11T00:26:32.196Z,77.47
2023-02-11T00:28:59.613Z,77.32
2023-02-11T00:31:27.309Z,77.37
2023-02-11T00:33:54.565Z,77.46
2023-02-11T00:36:24.539Z,77.40
2023-02-11T00:38:52.602Z,77.55
2023-02-11T00:41:20.513Z,77.50
2023-02-11T00:43:47.869Z,77.46
2023-02-11T00:46:15.486Z,77.45
2023-02-11T00:48:42.628Z,77.44
2023-02-11T00:51:09.731Z,77.49
2023-02-11T00:53:36.845Z,77.56
2023-02-11T00:56:04.143Z,77.31
2023-02-11T00:58:31.334Z,77.31
2023-02-11T01:00:58.249Z,77.44
2023-02-11T01:03:25.466Z,77.24
2023-02-11T01:05:52.637Z,77.23
2023-02-11T01:08:20.178Z,77.13
2023-02-11T01:10:54.989Z,77.16
2023-02-11T01:13:22.441Z,77.25
2023-02-11T01:15:49.873Z,77.13
2023-02-11T01:18:18.047Z,77.13
2023-02-11T01:20:45.025Z,77.17
2023-02-11T01:23:11.974Z,77.24
2023-02-11T01:25:38.880Z,77.16
2023-02-11T01:28:05.898Z,77.29
2023-02-11T01:30:32.925Z,76.94
2023-02-11T01:32:59.768Z,77.16
2023-02-11T01:35:26.676Z,77.07
2023-02-11T01:37:53.544Z,77.13
2023-02-11T01:40:20.515Z,77.12
2023-02-11T01:42:49.427Z,77.08
2023-02-11T01:45:57.638Z,77.19
2023-02-11T01:48:36.979Z,77.02
2023-02-11T01:51:09.775Z,76.97
2023-02-11T01:53:57.138Z,76.94
2023-02-11T01:56:45.453Z,77.25
2023-02-11T01:59:17.830Z,77.13
2023-02-11T02:01:49.413Z,77.17
2023-02-11T02:04:18.124Z,77.35
2023-02-11T02:06:56.526Z,77.30
2023-02-11T02:09:27.240Z,77.35
2023-02-11T02:11:54.363Z,77.55
2023-02-11T02:14:21.540Z,77.55
2023-02-11T02:16:48.455Z,77.60
2023-02-11T02:19:49.028Z,77.76
2023-02-11T02:22:38.422Z,77.55
2023-02-11T02:25:28.818Z,77.44
2023-02-11T02:28:09.832Z,77.84
2023-02-11T02:30:52.395Z,77.51
2023-02-11T02:33:59.163Z,77.67
2023-02-11T02:36:38.883Z,77.80
2023-02-11T02:39:26.500Z,77.88
2023-02-11T02:41:53.700Z,77.69
2023-02-11T02:44:20.890Z,78.02
2023-02-11T02:46:47.794Z,77.83
2023-02-11T02:49:16.496Z,77.85
2023-02-11T02:52:04.502Z,78.05
2023-02-11T02:55:00.605Z,78.17
2023-02-11T02:58:05.177Z,77.93
2023-02-11T03:01:05.000Z,78.26
2023-02-11T03:03:59.446Z,78.24
2023-02-11T03:06:32.305Z,78.24
2023-02-11T03:09:04.741Z,78.28
2023-02-11T03:11:31.652Z,78.06
2023-02-11T03:14:01.364Z,78.45
2023-02-11T03:16:28.692Z,78.33
2023-02-11T03:19:21.858Z,78.40
2023-02-11T03:21:50.206Z,78.18
2023-02-11T03:24:22.098Z,78.41
2023-02-11T03:26:54.393Z,78.39
2023-02-11T03:29:35.929Z,78.31
2023-02-11T03:32:28.055Z,78.57
2023-02-11T03:35:00.592Z,78.52
2023-02-11T03:37:51.812Z,78.55
2023-02-11T03:40:25.428Z,78.71
2023-02-11T03:42:59.271Z,78.45
2023-02-11T03:45:27.626Z,78.56
2023-02-11T03:48:00.794Z,78.65
2023-02-11T03:50:30.647Z,78.53
2023-02-11T03:52:59.365Z,78.63
2023-02-11T03:55:26.564Z,78.57
2023-02-11T03:57:53.467Z,78.62
2023-02-11T04:00:20.418Z,78.82
2023-02-11T04:02:47.539Z,78.94
2023-02-11T04:05:16.246Z,79.13
2023-02-11T04:07:43.069Z,79.02
2023-02-11T04:10:11.831Z,78.84
2023-02-11T04:12:38.625Z,79.09
2023-02-11T04:15:06.403Z,79.02
2023-02-11T04:17:33.186Z,79.41
2023-02-11T04:20:00.044Z,79.43
2023-02-11T04:22:26.884Z,79.48
2023-02-11T04:24:53.804Z,79.19
2023-02-11T04:27:20.702Z,79.26
2023-02-11T04:29:47.626Z,79.36
2023-02-11T04:32:14.544Z,79.69
2023-02-11T04:34:41.434Z,79.64
2023-02-11T04:37:08.521Z,79.67
2023-02-11T04:39:35.637Z,79.97
2023-02-11T04:42:02.492Z,79.87
2023-02-11T04:44:29.337Z,80.04
2023-02-11T04:46:56.232Z,80.01
2023-02-11T04:49:23.417Z,80.11
2023-02-11T04:51:50.405Z,80.06
2023-02-11T04:54:17.577Z,79.94
2023-02-11T04:56:44.783Z,80.21
2023-02-11T04:59:13.390Z,80.05
2023-02-11T05:01:40.611Z,80.24
2023-02-11T05:04:07.514Z,80.18
2023-02-11T05:06:34.449Z,80.23
2023-02-11T05:09:01.241Z,80.33
2023-02-11T05:11:28.049Z,80.38
2023-02-11T05:13:54.995Z,80.52
2023-02-11T05:16:22.022Z,80.35
2023-02-11T05:18:52.420Z,80.51
2023-02-11T05:21:19.907Z,80.43
2023-02-11T05:23:46.714Z,80.42
2023-02-11T05:26:14.086Z,80.46
2023-02-11T05:28:41.556Z,80.77
2023-02-11T05:31:09.254Z,80.84
2023-02-11T05:33:36.209Z,80.70
2023-02-11T05:36:06.132Z,80.71
2023-02-11T05:38:33.648Z,80.87
2023-02-11T05:41:00.946Z,80.79
2023-02-11T05:43:27.956Z,80.75
2023-02-11T05:45:55.022Z,81.04
2023-02-11T05:48:22.011Z,80.87
2023-02-11T05:50:49.279Z,81.02
2023-02-11T05:53:16.062Z,81.23
2023-02-11T05:55:43.118Z,81.11
2023-02-11T05:58:09.949Z,81.24
2023-02-11T06:00:36.871Z,81.24
2023-02-11T06:03:04.638Z,81.23
2023-02-11T06:05:32.285Z,81.00
2023-02-11T06:07:59.343Z,81.25
2023-02-11T06:10:26.794Z,81.13
2023-02-11T06:12:53.832Z,81.10
2023-02-11T06:15:20.794Z,81.31
2023-02-11T06:17:47.736Z,81.37
2023-02-11T06:20:14.563Z,81.49
2023-02-11T06:22:41.904Z,81.47
2023-02-11T06:25:09.047Z,81.40
2023-02-11T06:27:36.034Z,81.52
2023-02-11T06:30:03.826Z,81.46
2023-02-11T06:32:46.562Z,81.41
2023-02-11T06:35:14.825Z,81.50
2023-02-11T06:37:42.330Z,81.76
2023-02-11T06:40:10.203Z,81.57
2023-02-11T06:42:39.331Z,81.75
2023-02-11T06:45:09.492Z,81.87
2023-02-11T06:47:37.264Z,81.87
2023-02-11T06:50:04.516Z,81.72
2023-02-11T06:52:31.320Z,81.81
2023-02-11T06:54:58.196Z,81.97
2023-02-11T06:57:25.028Z,81.77
2023-02-11T06:59:52.160Z,81.95
2023-02-11T07:02:20.906Z,82.04
2023-02-11T07:04:47.975Z,81.96
2023-02-11T07:07:14.795Z,82.19
2023-02-11T07:09:41.840Z,82.09
2023-02-11T07:12:10.388Z,81.91
2023-02-11T07:14:37.352Z,82.21
2023-02-11T07:17:04.901Z,82.19
2023-02-11T07:19:31.948Z,82.34
2023-02-11T07:21:58.741Z,82.25
2023-02-11T07:24:25.756Z,82.35
2023-02-11T07:26:53.633Z,82.37
2023-02-11T07:29:20.499Z,82.18
2023-02-11T07:31:47.419Z,82.46
2023-02-11T07:34:14.319Z,82.23
2023-02-11T07:36:43.690Z,82.34
2023-02-11T07:39:10.898Z,82.19
2023-02-11T07:41:38.396Z,82.26
2023-02-11T07:44:05.834Z,82.32
2023-02-11T07:46:32.996Z,82.21
2023-02-11T07:48:59.856Z,82.63
2023-02-11T07:51:28.899Z,82.72
2023-02-11T07:53:57.496Z,82.67
2023-02-11T07:56:24.602Z,82.90
2023-02-11T07:58:51.625Z,82.73
2023-02-11T08:01:22.898Z,82.17
2023-02-11T08:03:49.860Z,82.42
2023-02-11T08:06:18.665Z,82.60
2023-02-11T08:08:45.506Z,82.89
2023-02-11T08:11:14.913Z,82.85
2023-02-11T08:13:42.510Z,82.60
2023-02-11T08:16:09.896Z,82.84
2023-02-11T08:18:36.966Z,82.88
2023-02-11T08:21:08.758Z,82.95
2023-02-11T08:23:39.914Z,82.56
2023-02-11T08:26:09.269Z,82.33
2023-02-11T08:28:37.453Z,82.27
2023-02-11T08:31:08.845Z,82.22
2023-02-11T08:33:36.091Z,82.50
2023-02-11T08:36:09.391Z,82.91
2023-02-11T08:38:36.406Z,82.71
2023-02-11T08:41:03.761Z,82.18
2023-02-11T08:43:30.842Z,82.56
2023-02-11T08:45:59.513Z,82.75
2023-02-11T08:48:28.793Z,82.55
2023-02-11T08:50:56.342Z,82.57
2023-02-11T08:53:23.631Z,82.32
2023-02-11T08:55:51.955Z,82.50
2023-02-11T08:58:19.381Z,82.36
2023-02-11T09:00:46.638Z,82.21
2023-02-11T09:03:14.139Z,82.20
2023-02-11T09:05:45.845Z,82.44
2023-02-11T09:08:13.362Z,82.60
2023-02-11T09:10:40.517Z,82.35
2023-02-11T09:13:07.943Z,82.48
2023-02-11T09:15:35.521Z,82.05
2023-02-11T09:18:02.634Z,82.10
2023-02-11T09:20:29.495Z,82.08
2023-02-11T09:22:58.127Z,82.66
2023-02-11T09:25:25.547Z,82.35
2023-02-11T09:27:53.864Z,82.68
2023-02-11T09:30:21.024Z,82.31
2023-02-11T09:32:48.080Z,82.11
2023-02-11T09:35:14.934Z,82.15
2023-02-11T09:37:41.774Z,81.88
2023-02-11T09:40:09.331Z,82.65
2023-02-11T09:43:04.541Z,82.51
2023-02-11T09:45:31.597Z,82.37
2023-02-11T09:48:04.376Z,82.35
2023-02-11T09:50:39.815Z,81.96
2023-02-11T09:53:12.517Z,81.85
2023-02-11T09:55:42.816Z,82.01
2023-02-11T09:58:33.934Z,82.20
2023-02-11T10:01:40.680Z,82.21
2023-02-11T10:04:38.680Z,81.91
2023-02-11T10:07:22.382Z,82.16
2023-02-11T10:10:02.356Z,82.37
2023-02-11T10:13:08.959Z,81.93
2023-02-11T10:15:46.848Z,82.22
2023-02-11T10:18:38.209Z,82.07
2023-02-11T10:21:32.760Z,82.16
2023-02-11T10:24:02.875Z,81.75
2023-02-11T10:26:31.203Z,81.54
2023-02-11T10:29:02.488Z,82.18
2023-02-11T10:31:38.526Z,81.66
2023-02-11T10:34:12.893Z,82.21
2023-02-11T10:36:42.352Z,81.82
2023-02-11T10:39:16.740Z,82.07
2023-02-11T10:41:51.551Z,81.94
2023-02-11T10:44:27.529Z,81.49
2023-02-11T10:46:54.769Z,81.97
2023-02-11T10:49:42.547Z,81.74
2023-02-11T10:52:26.823Z,81.91
2023-02-11T10:55:16.548Z,82.00
2023-02-11T10:57:51.519Z,81.98
2023-02-11T11:00:34.117Z,81.86
2023-02-11T11:03:01.753Z,81.82
2023-02-11T11:05:32.306Z,81.96
2023-02-11T11:08:01.115Z,81.75
2023-02-11T11:10:37.484Z,81.66
2023-02-11T11:13:04.402Z,81.82
2023-02-11T11:15:32.233Z,82.08
2023-02-11T11:18:22.531Z,82.10
2023-02-11T11:20:58.954Z,81.78
2023-02-11T11:23:26.228Z,81.95
2023-02-11T11:26:06.449Z,81.70
2023-02-11T11:28:39.036Z,81.81
2023-02-11T11:31:14.022Z,81.75
2023-02-11T11:33:44.077Z,81.80
2023-02-11T11:36:15.835Z,82.04
2023-02-11T11:38:57.414Z,81.82
2023-02-11T11:41:27.670Z,81.77
2023-02-11T11:44:01.107Z,81.94
2023-02-11T11:46:31.017Z,81.77
2023-02-11T11:49:04.264Z,82.02
2023-02-11T11:51:32.281Z,82.23
2023-02-11T11:54:11.663Z,81.84
2023-02-11T11:56:48.108Z,82.02
2023-02-11T11:59:16.780Z,81.72
2023-02-11T12:02:11.182Z,82.11
2023-02-11T12:04:47.916Z,81.99
2023-02-11T12:07:33.110Z,81.92
2023-02-11T12:10:32.363Z,81.48
2023-02-11T12:13:23.962Z,81.74
2023-02-11T12:16:02.494Z,81.69
2023-02-11T12:18:47.541Z,81.62
2023-02-11T12:21:54.365Z,81.40
2023-02-11T12:24:47.407Z,81.50
2023-02-11T12:27:54.005Z,81.10
2023-02-11T12:30:53.862Z,81.35
2023-02-11T12:33:49.283Z,81.47
2023-02-11T12:36:45.432Z,81.07
2023-02-11T12:39:35.012Z,81.30
2023-02-11T12:43:02.687Z,81.26
2023-02-11T12:45:46.678Z,80.99
2023-02-11T12:48:53.344Z,81.19
2023-02-11T12:51:52.700Z,81.01
2023-02-11T12:54:40.590Z,80.59
2023-02-11T12:57:33.449Z,80.93
2023-02-11T13:00:07.965Z,80.50
2023-02-11T13:02:44.808Z,80.44
2023-02-11T13:05:23.750Z,80.75
2023-02-11T13:07:53.226Z,80.49
2023-02-11T13:10:28.087Z,80.60
2023-02-11T13:13:16.197Z,80.23
2023-02-11T13:15:48.789Z,80.19
2023-02-11T13:18:52.105Z,80.23
2023-02-11T13:21:29.308Z,80.30
2023-02-11T13:24:24.056Z,80.27
2023-02-11T13:27:10.896Z,80.35
2023-02-11T13:30:04.303Z,80.18
2023-02-11T13:33:03.451Z,80.34
2023-02-11T13:35:38.454Z,79.98
2023-02-11T13:38:18.110Z,79.91
2023-02-11T13:40:45.653Z,79.72
2023-02-11T13:43:22.382Z,80.21
2023-02-11T13:45:50.795Z,80.01
2023-02-11T13:48:27.003Z,80.06
2023-02-11T13:50:56.683Z,79.77
2023-02-11T13:53:23.977Z,80.05
2023-02-11T13:55:52.797Z,79.99
2023-02-11T13:58:37.209Z,79.76
2023-02-11T14:01:04.169Z,79.62
2023-02-11T14:03:54.235Z,79.57
2023-02-11T14:06:43.902Z,79.42
2023-02-11T14:09:35.184Z,79.75
2023-02-11T14:12:26.531Z,79.55
2023-02-11T14:15:17.952Z,79.34
2023-02-11T14:17:44.942Z,79.74
2023-02-11T14:20:36.638Z,79.78
2023-02-11T14:23:04.902Z,79.46
2023-02-11T14:25:32.230Z,79.59
2023-02-11T14:28:12.068Z,79.47
2023-02-11T14:31:02.955Z,79.66
2023-02-11T14:34:07.950Z,79.18
2023-02-11T14:36:46.376Z,79.16
2023-02-11T14:39:45.273Z,79.38
2023-02-11T14:42:19.996Z,79.29
2023-02-11T14:44:49.353Z,79.34
2023-02-11T14:47:20.061Z,79.10
2023-02-11T14:49:47.984Z,79.11
2023-02-11T14:52:27.089Z,79.13
2023-02-11T14:55:19.647Z,79.21
2023-02-11T14:58:11.728Z,79.21
2023-02-11T15:01:09.172Z,79.19
2023-02-11T15:03:41.016Z,79.00
2023-02-11T15:06:20.625Z,79.37
2023-02-11T15:08:58.335Z,79.41
2023-02-11T15:11:26.040Z,79.18
2023-02-11T15:13:55.466Z,78.88
2023-02-11T15:16:24.636Z,79.33
2023-02-11T15:18:58.574Z,78.95
2023-02-11T15:21:30.929Z,79.30
2023-02-11T15:24:19.245Z,79.32
2023-02-11T15:26:55.785Z,79.12
2023-02-11T15:29:27.356Z,78.88
2023-02-11T15:32:16.096Z,78.92
2023-02-11T15:34:44.659Z,79.01
2023-02-11T15:37:30.241Z,78.85
2023-02-11T15:40:11.534Z,78.86
2023-02-11T15:42:52.209Z,79.00
2023-02-11T15:45:28.865Z,78.74
2023-02-11T15:47:59.730Z,78.72
2023-02-11T15:50:30.341Z,79.17
2023-02-11T15:53:01.150Z,79.09
2023-02-11T15:55:28.902Z,79.23
2023-02-11T15:57:58.206Z,78.96
2023-02-11T16:00:34.195Z,79.19
2023-02-11T16:03:01.302Z,78.85
2023-02-11T16:05:32.203Z,79.07
2023-02-11T16:07:59.926Z,78.88
2023-02-11T16:10:36.030Z,78.74
2023-02-11T16:13:19.876Z,79.24
2023-02-11T16:15:52.954Z,79.26
2023-02-11T16:18:40.407Z,78.74
2023-02-11T16:21:15.093Z,79.13
2023-02-11T16:23:42.485Z,78.73
2023-02-11T16:26:29.083Z,78.96
2023-02-11T16:29:16.812Z,79.05
2023-02-11T16:31:47.860Z,79.01
2023-02-11T16:34:21.023Z,78.59
2023-02-11T16:36:48.907Z,79.32
2023-02-11T16:39:17.931Z,78.66
2023-02-11T16:41:46.388Z,78.75
2023-02-11T16:44:14.560Z,78.87
2023-02-11T16:46:41.942Z,78.88
2023-02-11T16:49:28.493Z,79.23
2023-02-11T16:52:01.248Z,78.75
2023-02-11T16:54:31.707Z,78.72
2023-02-11T16:57:00.768Z,78.58
2023-02-11T16:59:31.951Z,79.02
2023-02-11T17:02:06.926Z,78.35
2023-02-11T17:04:37.896Z,78.86
2023-02-11T17:07:08.355Z,78.35
2023-02-11T17:09:37.446Z,78.65
2023-02-11T17:12:07.906Z,78.65
2023-02-11T17:14:36.534Z,78.34
2023-02-11T17:17:06.482Z,78.53
2023-02-11T17:19:34.954Z,78.56
2023-02-11T17:22:04.501Z,78.46
2023-02-11T17:24:38.866Z,78.47
2023-02-11T17:27:06.173Z,78.00
2023-02-11T17:29:33.680Z,78.29
2023-02-11T17:32:01.362Z,78.15
2023-02-11T17:34:29.834Z,78.41
2023-02-11T17:36:58.044Z,78.03
2023-02-11T17:39:25.918Z,78.36
2023-02-11T17:41:55.455Z,78.14
2023-02-11T17:44:22.543Z,77.82
2023-02-11T17:46:49.349Z,78.24
2023-02-11T17:49:16.578Z,77.86
2023-02-11T17:51:43.417Z,77.81
2023-02-11T17:54:15.901Z,77.76
2023-02-11T17:56:43.308Z,77.89
2023-02-11T17:59:11.982Z,77.83
2023-02-11T18:01:40.219Z,77.66
2023-02-11T18:04:08.732Z,77.80
2023-02-11T18:06:36.697Z,77.61
2023-02-11T18:09:04.569Z,77.69
2023-02-11T18:11:32.972Z,77.55
2023-02-11T18:14:01.261Z,77.57
2023-02-11T18:16:29.536Z,77.39
2023-02-11T18:18:57.833Z,77.46
2023-02-11T18:21:25.142Z,77.35
2023-02-11T18:23:56.038Z,77.22
2023-02-11T18:26:27.698Z,77.12
2023-02-11T18:28:57.901Z,77.36
2023-02-11T18:31:26.729Z,77.17
2023-02-11T18:33:54.698Z,77.19
2023-02-11T18:36:23.401Z,77.03
2023-02-11T18:38:52.708Z,76.79
2023-02-11T18:41:23.891Z,76.80
2023-02-11T18:43:51.407Z,76.80
2023-02-11T18:46:21.465Z,76.89
2023-02-11T18:48:50.092Z,76.54
2023-02-11T18:51:21.110Z,76.64
2023-02-11T18:53:48.093Z,76.69
2023-02-11T18:56:17.815Z,76.35
2023-02-11T18:58:44.683Z,76.21
2023-02-11T19:01:24.541Z,76.40
2023-02-11T19:03:51.818Z,76.17
2023-02-11T19:06:27.234Z,76.15
2023-02-11T19:09:00.109Z,76.18
2023-02-11T19:11:48.638Z,75.98
2023-02-11T19:14:24.420Z,75.89
2023-02-11T19:16:53.678Z,75.91
2023-02-11T19:19:23.417Z,75.62
2023-02-11T19:21:50.963Z,75.86
2023-02-11T19:24:21.724Z,75.69
2023-02-11T19:26:50.093Z,75.74
2023-02-11T19:29:17.751Z,75.71
2023-02-11T19:31:46.624Z,75.77
2023-02-11T19:34:15.529Z,75.57
2023-02-11T19:36:43.475Z,75.55
2023-02-11T19:39:10.562Z,75.53
2023-02-11T19:41:38.174Z,75.73
2023-02-11T19:44:08.646Z,75.42
2023-02-11T19:46:42.032Z,75.31
2023-02-11T19:49:11.820Z,75.19
2023-02-11T19:51:39.624Z,75.57
2023-02-11T19:54:08.949Z,75.56
2023-02-11T19:56:37.922Z,75.62
2023-02-11T19:59:09.019Z,75.67
2023-02-11T20:01:37.272Z,75.29
2023-02-11T20:04:04.540Z,75.69
2023-02-11T20:06:32.706Z,75.35
2023-02-11T20:09:01.927Z,75.70
2023-02-11T20:11:31.535Z,75.78
2023-02-11T20:13:59.062Z,75.93
2023-02-11T20:16:44.624Z,76.01
2023-02-11T20:19:18.360Z,76.33
2023-02-11T20:21:47.590Z,76.28
2023-02-11T20:24:16.335Z,76.18
2023-02-11T20:26:43.394Z,76.35
2023-02-11T20:29:10.290Z,76.25
2023-02-11T20:31:38.086Z,76.25
2023-02-11T20:34:05.114Z,76.53
2023-02-11T20:36:35.792Z,76.96
2023-02-11T20:39:05.603Z,76.80
2023-02-11T20:41:35.434Z,77.02
2023-02-11T20:44:05.532Z,76.86
2023-02-11T20:46:35.279Z,76.83
2023-02-11T20:49:03.126Z,76.87
2023-02-11T20:51:38.308Z,77.25
2023-02-11T20:54:07.211Z,76.73
2023-02-11T20:56:36.244Z,77.09
2023-02-11T20:59:05.145Z,77.20
2023-02-11T21:01:35.912Z,76.91
2023-02-11T21:04:07.134Z,76.97
2023-02-11T21:06:39.388Z,77.11
2023-02-11T21:09:09.344Z,76.93
2023-02-11T21:11:36.393Z,76.96
2023-02-11T21:14:03.768Z,76.85
2023-02-11T21:16:31.912Z,77.09
2023-02-11T21:18:58.799Z,76.94
2023-02-11T21:21:26.280Z,76.54
2023-02-11T21:23:53.198Z,76.84
2023-02-11T21:26:20.030Z,76.65
2023-02-11T21:28:48.779Z,76.60
2023-02-11T21:31:27.326Z,76.16
2023-02-11T21:33:59.420Z,76.52
2023-02-11T21:36:28.615Z,76.12
2023-02-11T21:38:55.761Z,76.05
2023-02-11T21:41:22.811Z,76.17
2023-02-11T21:43:50.615Z,75.87
2023-02-11T21:46:18.161Z,75.77
2023-02-11T21:48:45.178Z,75.90
2023-02-11T21:51:17.655Z,75.64
2023-02-11T21:53:44.777Z,75.87
2023-02-11T21:56:14.678Z,75.44
2023-02-11T21:58:41.947Z,75.27
2023-02-11T22:01:17.512Z,75.45
2023-02-11T22:03:45.197Z,75.27
2023-02-11T22:06:14.918Z,75.57
2023-02-11T22:08:41.844Z,75.04
2023-02-11T22:11:12.352Z,74.89
2023-02-11T22:13:39.824Z,74.92
2023-02-11T22:16:09.500Z,74.91
2023-02-11T22:18:37.271Z,74.51
2023-02-11T22:21:09.930Z,74.91
2023-02-11T22:23:37.551Z,74.84
2023-02-11T22:26:06.610Z,74.86
2023-02-11T22:28:34.066Z,74.77
2023-02-11T22:31:01.147Z,74.53
2023-02-11T22:33:28.424Z,74.54
2023-02-11T22:35:59.795Z,74.79
2023-02-11T22:38:28.526Z,74.61
2023-02-11T22:40:55.756Z,74.46
2023-02-11T22:43:22.766Z,74.62
2023-02-11T22:45:50.188Z,74.80
2023-02-11T22:48:17.508Z,74.69
2023-02-11T22:50:44.648Z,74.44
2023-02-11T22:53:11.553Z,74.38
2023-02-11T22:55:39.520Z,74.73
2023-02-11T22:58:06.724Z,74.49
2023-02-11T23:00:38.063Z,74.63
2023-02-11T23:03:05.969Z,74.76
2023-02-11T23:05:40.818Z,74.92
2023-02-11T23:08:08.919Z,74.91
2023-02-11T23:10:37.421Z,75.10
2023-02-11T23:13:05.427Z,74.50
2023-02-11T23:15:32.660Z,74.44
2023-02-11T23:17:59.772Z,75.08
2023-02-11T23:20:26.611Z,74.55
2023-02-11T23:22:53.514Z,74.58
2023-02-11T23:25:20.322Z,74.88
2023-02-11T23:27:47.180Z,74.84
2023-02-11T23:30:14.470Z,75.04
2023-02-11T23:32:41.370Z,75.05
2023-02-11T23:35:08.379Z,74.71
2023-02-11T23:37:35.251Z,75.16
2023-02-11T23:40:02.111Z,74.59
2023-02-11T23:42:29.255Z,75.07
2023-02-11T23:44:56.127Z,74.96
2023-02-11T23:47:22.966Z,74.80
2023-02-11T23:49:49.797Z,75.15
2023-02-11T23:52:16.665Z,74.63
2023-02-11T23:54:44.973Z,74.61
2023-02-11T23:57:11.765Z,74.83
2023-02-11T23:59:38.695Z,74.88
